< Typhoon 198320 1983 Season Typhoon 198322 >
Typhoon 198321 (RUTH)
General InformationTrack Information on Google MapsDetailed Wind InformationList of All Images || Disaster Info.ResourceGoogle EarthGE AnimationAtom FeedGeoJSON
Detalied Best Track (Time Zone = UTC)
Year Month Day Hour Lat. Long. Pressure (hPa) Wind (kt) Class Image Chart
1983 11 21 06 8.0 147.5 1002 0 2 Image Chart
1983 11 21 12 8.3 146.8 1004 0 2 Image Chart
1983 11 21 18 8.5 146.0 1004 0 2 Image Chart
1983 11 22 00 8.5 145.0 1004 0 2 Image Chart
1983 11 22 06 8.5 144.0 1004 0 2 Image Chart
1983 11 22 12 8.9 142.9 1004 0 2 Image Chart
1983 11 22 18 9.0 142.0 1004 0 2 Image Chart
1983 11 23 00 9.0 141.5 1004 0 2 Image Chart
1983 11 23 06 9.0 141.0 1004 0 2 Image Chart
1983 11 23 12 9.0 140.5 1004 0 2 Image Chart
1983 11 23 18 9.0 140.0 1004 0 2 Image Chart
1983 11 24 00 9.0 139.5 1004 0 2 Image Chart
1983 11 24 06 9.0 139.0 1004 0 2 Image Chart
1983 11 24 12 9.0 138.5 1004 0 2 Image Chart
1983 11 24 18 9.0 138.0 1004 0 2 Image Chart
1983 11 25 00 9.0 137.0 1004 0 2 Image Chart
1983 11 25 06 9.4 136.0 1005 0 2 Image Chart
1983 11 25 12 10.0 135.0 1006 0 2 Image Chart
1983 11 25 18 11.0 134.0 1006 0 2 Image Chart
1983 11 26 00 12.0 133.0 1006 0 2 Image Chart
1983 11 26 06 13.0 132.5 1006 0 2 Image Chart
1983 11 26 12 14.0 132.0 1006 0 2 Image Chart
1983 11 26 18 15.0 131.4 1006 0 2 Image Chart
1983 11 27 00 15.7 131.0 1006 0 2 Image Chart
1983 11 27 06 16.2 130.6 1006 0 2 Image Chart
1983 11 27 12 16.5 130.0 1006 0 2 Image Chart
1983 11 27 18 17.0 129.3 1004 0 2 Image Chart
1983 11 28 00 17.3 128.6 996 40 3 Image Chart
1983 11 28 06 17.8 128.3 994 50 4 Image Chart
1983 11 28 12 18.1 127.8 992 50 4 Image Chart
1983 11 28 18 18.2 127.1 992 50 4 Image Chart
1983 11 29 00 18.2 126.8 998 45 3 Image Chart
1983 11 29 06 18.4 126.5 1002 45 3 Image Chart
1983 11 29 12 18.5 126.2 1004 35 3 Image Chart
1983 11 29 18 18.6 125.9 1006 0 2 Image Chart
1983 11 30 00 18.5 125.6 1006 0 2 Image Chart
1983 11 30 06 18.1 125.4 1006 0 2 Image Chart
Japan Meteorological Agency Best Track Data | Correction Date : 1992-10-21
< Typhoon 198320 1983 Season Typhoon 198322 >

Help